Time;durP1;ratioP1;P1;durP2;ratioP2;P2;SDS_P1;SDS_P2;PMS_P1;PMS_P2;Temp;Humidity;BMP_temperature;BMP_pressure;BME280_temperature;BME280_humidity;BME280_pressure;Samples;Min_cycle;Max_cycle;Signal;HPM_P1;HPM_P2
2023/08/28 00:01:38;;;;;;;3.58;2.35;;;;;;;15.84;100.00;101061.06;4790639;29;20416;-65
2023/08/28 00:04:06;;;;;;;5.95;2.83;;;;;;;15.81;100.00;101056.97;4805389;29;20377;-65
2023/08/28 00:06:34;;;;;;;5.22;2.83;;;;;;;15.81;100.00;101051.47;4804938;29;20457;-64
2023/08/28 00:09:02;;;;;;;6.18;2.67;;;;;;;15.79;100.00;101050.13;4788757;30;20063;-64
2023/08/28 00:11:30;;;;;;;5.10;2.88;;;;;;;15.79;100.00;101061.13;4789096;30;20047;-64
2023/08/28 00:13:58;;;;;;;6.28;2.90;;;;;;;15.75;100.00;101050.75;4789188;29;20051;-65
2023/08/28 00:16:25;;;;;;;5.68;3.03;;;;;;;15.73;100.00;101060.41;4806582;29;20604;-65
2023/08/28 00:18:53;;;;;;;3.97;2.83;;;;;;;15.73;100.00;101057.66;4806586;29;20055;-65
2023/08/28 00:21:21;;;;;;;4.93;2.85;;;;;;;15.71;100.00;101060.69;4806832;29;20069;-65
2023/08/28 00:23:49;;;;;;;4.38;2.97;;;;;;;15.72;100.00;101065.06;4808768;29;20054;-64
2023/08/28 00:26:16;;;;;;;4.97;2.97;;;;;;;15.72;100.00;101056.81;4809337;29;20058;-63
2023/08/28 00:28:44;;;;;;;5.18;2.88;;;;;;;15.73;100.00;101050.22;4809681;29;20057;-63
2023/08/28 00:31:12;;;;;;;5.90;2.78;;;;;;;15.70;100.00;101050.78;4793629;29;20078;-64
2023/08/28 00:33:40;;;;;;;7.10;3.22;;;;;;;15.68;100.00;101044.78;4793955;29;20107;-65
2023/08/28 00:36:07;;;;;;;6.00;3.20;;;;;;;15.67;100.00;101045.88;4795673;29;20054;-65
2023/08/28 00:38:36;;;;;;;9.38;3.10;;;;;;;15.67;100.00;101048.63;4806823;29;20050;-65
2023/08/28 00:41:06;;;;;;;6.40;2.95;;;;;;;15.64;100.00;101049.22;4807467;29;20047;-64
2023/08/28 00:43:34;;;;;;;6.82;3.30;;;;;;;15.62;100.00;101039.66;4793493;29;20055;-65
2023/08/28 00:46:03;;;;;;;3.90;2.83;;;;;;;15.62;100.00;101037.72;4792333;29;20058;-65
2023/08/28 00:48:31;;;;;;;4.82;2.92;;;;;;;15.61;100.00;101043.47;4791798;29;20050;-63
2023/08/28 00:51:00;;;;;;;6.28;3.20;;;;;;;15.59;100.00;101041.06;4793107;29;20063;-64
2023/08/28 00:53:28;;;;;;;5.55;2.95;;;;;;;15.59;100.00;101040.25;4778914;29;20100;-64
2023/08/28 00:55:55;;;;;;;5.25;2.80;;;;;;;15.58;100.00;101039.41;4792761;29;20059;-65
2023/08/28 00:58:23;;;;;;;4.45;2.90;;;;;;;15.60;100.00;101039.94;4790603;29;20411;-65
2023/08/28 01:00:51;;;;;;;7.35;2.97;;;;;;;15.59;100.00;101032.81;4808038;29;20059;-65
2023/08/28 01:03:19;;;;;;;5.63;3.20;;;;;;;15.60;100.00;101025.38;4807993;29;20051;-65
2023/08/28 01:06:06;;;;;;;5.70;2.97;;;;;;;15.59;100.00;101024.56;4801432;29;20061;-65
2023/08/28 01:08:45;;;;;;;5.32;3.10;;;;;;;15.59;100.00;101021.03;4801917;29;20047;-64
2023/08/28 01:11:31;;;;;;;5.72;3.20;;;;;;;15.57;100.00;101024.06;4774572;30;20099;-65
2023/08/28 01:14:11;;;;;;;12.25;3.17;;;;;;;15.56;100.00;101025.16;4775212;29;20051;-64
2023/08/28 01:16:41;;;;;;;4.80;2.97;;;;;;;15.55;100.00;101029.03;4774046;30;20059;-65
2023/08/28 01:19:17;;;;;;;6.88;3.33;;;;;;;15.54;100.00;101017.22;4801048;29;20070;-65
2023/08/28 01:21:45;;;;;;;4.25;3.00;;;;;;;15.54;100.00;101016.41;4791187;29;20054;-65
2023/08/28 01:24:15;;;;;;;5.97;3.40;;;;;;;15.52;100.00;101018.63;4807467;29;20050;-65
2023/08/28 01:26:43;;;;;;;7.90;3.40;;;;;;;15.51;100.00;101016.97;4799182;29;20047;-64
2023/08/28 01:29:12;;;;;;;6.82;3.17;;;;;;;15.51;100.00;101022.47;4813844;29;20055;-64
2023/08/28 01:31:40;;;;;;;6.85;3.30;;;;;;;15.50;100.00;101023.59;4807002;29;20061;-64
2023/08/28 01:34:08;;;;;;;5.82;3.42;;;;;;;15.48;100.00;101023.88;4806706;29;20046;-64
2023/08/28 01:36:46;;;;;;;10.77;3.47;;;;;;;15.46;100.00;101019.81;4791967;29;20058;-64
2023/08/28 01:39:26;;;;;;;6.88;3.75;;;;;;;15.43;100.00;101009.41;4791645;29;20111;-64
2023/08/28 01:41:53;;;;;;;5.97;3.50;;;;;;;15.40;100.00;101010.84;4792483;29;20323;-64
2023/08/28 01:44:22;;;;;;;5.30;3.30;;;;;;;15.37;100.00;101007.84;4792383;29;20444;-64
2023/08/28 01:46:51;;;;;;;8.98;3.22;;;;;;;15.38;100.00;101004.00;4779052;29;20057;-65
2023/08/28 01:49:18;;;;;;;6.10;3.30;;;;;;;15.40;100.00;101004.53;4810566;29;20134;-65
2023/08/28 01:51:46;;;;;;;4.93;3.22;;;;;;;15.40;100.00;100999.03;4810427;29;20422;-64
2023/08/28 01:54:14;;;;;;;4.30;3.20;;;;;;;15.40;100.00;100993.53;4820004;29;20051;-64
2023/08/28 01:56:42;;;;;;;8.20;3.63;;;;;;;15.39;100.00;100992.72;4795590;29;20074;-64
2023/08/28 01:59:10;;;;;;;6.45;3.38;;;;;;;15.38;100.00;101001.25;4792081;29;20073;-63
2023/08/28 02:01:38;;;;;;;6.07;3.50;;;;;;;15.37;100.00;101003.19;4792210;29;20051;-65
2023/08/28 02:04:06;;;;;;;7.28;3.22;;;;;;;15.38;100.00;101006.75;4806526;29;20055;-65
2023/08/28 02:06:34;;;;;;;6.65;3.45;;;;;;;15.38;100.00;101006.75;4775801;29;20046;-65
2023/08/28 02:09:02;;;;;;;6.40;3.55;;;;;;;15.38;100.00;101010.31;4806590;29;20489;-65
2023/08/28 02:11:29;;;;;;;9.07;3.70;;;;;;;15.37;100.00;101007.84;4807836;29;20051;-63
2023/08/28 02:13:57;;;;;;;5.45;3.50;;;;;;;15.36;100.00;101008.97;4802918;29;20061;-65
2023/08/28 02:16:25;;;;;;;5.15;3.25;;;;;;;15.32;100.00;101004.09;4806408;29;20103;-65
2023/08/28 02:18:53;;;;;;;6.45;2.85;;;;;;;15.32;100.00;100997.75;4809680;29;20055;-63
2023/08/28 02:21:21;;;;;;;6.78;3.40;;;;;;;15.30;100.00;100989.81;4820042;29;20058;-64
2023/08/28 02:23:49;;;;;;;5.40;3.35;;;;;;;15.29;100.00;100996.41;4806673;29;20058;-63
2023/08/28 02:26:17;;;;;;;6.40;3.45;;;;;;;15.28;100.00;100991.25;4789274;29;20055;-63
2023/08/28 02:28:45;;;;;;;8.50;3.78;;;;;;;15.27;100.00;100995.91;4792379;29;20485;-63
2023/08/28 02:31:13;;;;;;;7.13;3.45;;;;;;;15.28;100.00;101005.78;4806810;29;20062;-64
2023/08/28 02:33:41;;;;;;;4.68;3.30;;;;;;;15.27;100.00;101000.56;4807470;29;20112;-63
2023/08/28 02:36:09;;;;;;;6.53;3.30;;;;;;;15.28;100.00;100999.47;4799594;29;20055;-64
2023/08/28 02:38:37;;;;;;;7.35;3.50;;;;;;;15.27;100.00;100998.66;4807755;29;20054;-63
2023/08/28 02:41:07;;;;;;;6.25;3.58;;;;;;;15.25;100.00;101006.38;4802565;29;20048;-63
2023/08/28 02:43:38;;;;;;;7.00;3.28;;;;;;;15.22;100.00;100993.22;4790654;29;20063;-63
2023/08/28 02:46:06;;;;;;;10.60;3.80;;;;;;;15.19;100.00;100996.56;4791302;29;20470;-65
2023/08/28 02:48:34;;;;;;;5.80;3.47;;;;;;;15.19;100.00;100991.06;4792568;29;20047;-63
2023/08/28 02:51:02;;;;;;;6.20;3.40;;;;;;;15.20;100.00;100989.13;4777246;29;20046;-63
2023/08/28 02:53:30;;;;;;;6.90;3.17;;;;;;;15.22;100.00;100990.47;4807656;29;20054;-61
2023/08/28 02:56:16;;;;;;;6.57;3.40;;;;;;;15.18;100.00;101000.44;4808073;29;20162;-62
2023/08/28 02:58:44;;;;;;;6.72;3.22;;;;;;;15.16;100.00;100999.91;4799011;30;20126;-63
2023/08/28 03:01:12;;;;;;;5.75;3.28;;;;;;;15.16;100.00;101004.56;4788484;30;20059;-64
2023/08/28 03:03:40;;;;;;;7.03;3.22;;;;;;;15.17;100.00;101007.00;4802707;30;20045;-59
2023/08/28 03:06:08;;;;;;;6.38;3.40;;;;;;;15.16;100.00;101008.13;4803804;29;20055;-62
2023/08/28 03:08:36;;;;;;;6.97;3.42;;;;;;;15.14;100.00;101013.09;4833521;29;20151;-64
2023/08/28 03:11:03;;;;;;;6.85;3.22;;;;;;;15.10;100.00;101012.03;4827940;29;20083;-65
2023/08/28 03:13:31;;;;;;;5.18;3.33;;;;;;;15.06;100.00;101017.31;4826365;29;20047;-62
2023/08/28 03:15:59;;;;;;;5.80;3.40;;;;;;;15.04;100.00;101024.22;4792371;29;20058;-65
2023/08/28 03:18:27;;;;;;;7.43;3.67;;;;;;;15.03;100.00;101028.88;4784992;29;20374;-62
2023/08/28 03:20:55;;;;;;;9.15;3.30;;;;;;;15.02;100.00;101031.91;4788307;29;20068;-63
2023/08/28 03:23:23;;;;;;;6.57;3.60;;;;;;;15.03;100.00;101028.03;4774379;30;20065;-65
2023/08/28 03:25:50;;;;;;;6.43;3.70;;;;;;;14.98;100.00;101023.44;4805134;29;20059;-65
2023/08/28 03:28:18;;;;;;;6.63;3.78;;;;;;;14.97;100.00;101023.75;4807805;29;20074;-64
2023/08/28 03:30:48;;;;;;;7.70;3.70;;;;;;;14.93;100.00;101022.69;4806677;29;20065;-64
2023/08/28 03:33:16;;;;;;;5.75;3.38;;;;;;;14.91;100.00;101015.56;4807750;29;20085;-64
2023/08/28 03:35:44;;;;;;;7.38;3.60;;;;;;;14.92;100.00;101021.88;4797468;29;20054;-64
2023/08/28 03:38:12;;;;;;;9.00;3.67;;;;;;;14.94;100.00;101027.09;4791114;29;20480;-64
2023/08/28 03:40:39;;;;;;;6.47;3.70;;;;;;;14.92;100.00;101032.84;4807082;29;20061;-63
2023/08/28 03:43:07;;;;;;;7.38;3.70;;;;;;;14.93;100.00;101033.66;4791423;29;20075;-64
2023/08/28 03:45:35;;;;;;;6.65;3.88;;;;;;;14.91;100.00;101048.50;4802626;29;20053;-64
2023/08/28 03:48:04;;;;;;;9.48;3.75;;;;;;;14.90;100.00;101052.34;4812578;29;20064;-65
2023/08/28 03:50:32;;;;;;;9.13;4.20;;;;;;;14.90;100.00;101057.81;4789257;29;20415;-64
2023/08/28 03:53:00;;;;;;;9.25;3.67;;;;;;;14.89;100.00;101055.38;4806006;29;20055;-64
2023/08/28 03:55:32;;;;;;;6.75;3.70;;;;;;;14.88;100.00;101056.47;4790789;29;20074;-64
2023/08/28 03:58:03;;;;;;;5.88;3.42;;;;;;;14.85;100.00;101049.66;4791828;29;20504;-65
2023/08/28 04:00:34;;;;;;;5.97;3.88;;;;;;;14.86;100.00;101054.03;4810689;29;20072;-64
2023/08/28 04:03:02;;;;;;;5.32;3.60;;;;;;;14.85;100.00;101060.63;4792339;29;20099;-64
2023/08/28 04:05:35;;;;;;;6.53;4.18;;;;;;;14.80;100.00;101066.16;4792645;29;20055;-64
2023/08/28 04:08:04;;;;;;;7.78;4.10;;;;;;;14.76;100.00;101067.84;4795031;29;20081;-64
2023/08/28 04:10:31;;;;;;;7.25;4.20;;;;;;;14.73;100.00;101079.41;4799084;29;20069;-65
2023/08/28 04:13:00;;;;;;;5.95;3.70;;;;;;;14.74;100.00;101081.03;4807866;29;20051;-65
2023/08/28 04:15:29;;;;;;;6.38;3.75;;;;;;;14.75;100.00;101077.19;4806804;29;20062;-65
2023/08/28 04:17:59;;;;;;;8.60;4.13;;;;;;;14.76;100.00;101076.09;4792434;29;20419;-64
2023/08/28 04:20:27;;;;;;;7.93;3.92;;;;;;;14.77;100.00;101076.88;4779987;29;20047;-64
2023/08/28 04:22:55;;;;;;;9.13;4.32;;;;;;;14.77;100.00;101079.63;4811538;29;19925;-63
2023/08/28 04:25:23;;;;;;;10.50;4.35;;;;;;;14.76;100.00;101076.09;4818502;29;20293;-64
2023/08/28 04:27:51;;;;;;;6.85;4.20;;;;;;;14.76;100.00;101073.34;4817789;29;20054;-63
2023/08/28 04:30:19;;;;;;;7.60;4.35;;;;;;;14.74;100.00;101075.53;4786438;29;20130;-64
2023/08/28 04:32:47;;;;;;;7.47;4.70;;;;;;;14.75;100.00;101077.19;4816831;29;20102;-64
2023/08/28 04:35:17;;;;;;;7.32;4.63;;;;;;;14.77;100.00;101083.22;4819584;29;20146;-63
2023/08/28 04:37:45;;;;;;;8.40;4.35;;;;;;;14.81;100.00;101088.94;4794227;29;20083;-65
2023/08/28 04:40:12;;;;;;;8.63;4.47;;;;;;;14.80;100.00;101079.88;4810850;29;20054;-64
2023/08/28 04:42:40;;;;;;;8.48;4.28;;;;;;;14.80;100.00;101079.88;4779038;29;20051;-64
2023/08/28 04:45:08;;;;;;;7.80;3.97;;;;;;;14.80;100.00;101074.41;4796989;29;20051;-63
2023/08/28 04:47:36;;;;;;;9.00;4.70;;;;;;;14.79;100.00;101082.91;4809709;29;20046;-62
2023/08/28 04:50:04;;;;;;;6.97;4.05;;;;;;;14.79;100.00;101078.25;4793376;29;20061;-64
2023/08/28 04:52:32;;;;;;;8.27;4.50;;;;;;;14.80;100.00;101068.91;4792587;29;20414;-63
2023/08/28 04:55:00;;;;;;;8.27;4.47;;;;;;;14.79;100.00;101061.81;4793441;29;20054;-63
2023/08/28 04:57:28;;;;;;;7.97;4.72;;;;;;;14.77;100.00;101064.03;4793454;29;20054;-65
2023/08/28 04:59:55;;;;;;;8.88;4.07;;;;;;;14.77;100.00;101055.78;4793488;29;20057;-64
2023/08/28 05:02:24;;;;;;;8.23;4.82;;;;;;;14.79;100.00;101052.72;4793663;29;20074;-64
2023/08/28 05:04:54;;;;;;;7.07;4.47;;;;;;;14.78;100.00;101049.19;4820343;29;20050;-65
2023/08/28 05:07:22;;;;;;;10.75;4.47;;;;;;;14.78;100.00;101053.84;4793396;29;20054;-64
2023/08/28 05:09:50;;;;;;;11.23;4.78;;;;;;;14.76;100.00;101048.66;4826279;29;20061;-63
2023/08/28 05:12:19;;;;;;;7.70;4.60;;;;;;;14.76;100.00;101050.59;4810550;29;20081;-64
2023/08/28 05:14:47;;;;;;;11.38;5.03;;;;;;;14.72;100.00;101044.88;4810535;29;20052;-65
2023/08/28 05:17:15;;;;;;;8.23;4.75;;;;;;;14.72;100.00;101042.13;4810232;29;20054;-64
2023/08/28 05:19:43;;;;;;;11.02;4.68;;;;;;;14.73;100.00;101046.50;4827819;29;20186;-64
2023/08/28 05:22:11;;;;;;;8.50;4.50;;;;;;;14.72;100.00;101053.09;4811285;29;20195;-64
2023/08/28 05:24:39;;;;;;;9.98;5.03;;;;;;;14.73;100.00;101046.50;4826897;29;20050;-65
2023/08/28 05:27:08;;;;;;;9.95;4.45;;;;;;;14.74;100.00;101041.81;4827403;29;20412;-64
2023/08/28 05:29:36;;;;;;;8.68;4.50;;;;;;;14.75;100.00;101049.78;4795540;29;20055;-64
2023/08/28 05:32:04;;;;;;;8.15;4.68;;;;;;;14.78;100.00;101051.94;4810488;29;20397;-64
2023/08/28 05:34:32;;;;;;;7.97;4.70;;;;;;;14.80;100.00;101057.94;4808880;29;20397;-65
2023/08/28 05:37:00;;;;;;;8.48;4.78;;;;;;;14.82;100.00;101054.91;4795460;29;20070;-64
2023/08/28 05:39:28;;;;;;;7.90;3.55;;;;;;;14.83;100.00;101051.88;4827358;29;20051;-65
2023/08/28 05:41:55;;;;;;;10.55;4.20;;;;;;;14.85;100.00;101054.31;4826771;29;20047;-64
2023/08/28 05:44:25;;;;;;;6.05;3.83;;;;;;;14.88;100.00;101059.22;4795795;29;20491;-66
2023/08/28 05:46:54;;;;;;;8.48;4.70;;;;;;;14.87;100.00;101063.91;4832882;29;20081;-65
2023/08/28 05:49:23;;;;;;;10.25;4.43;;;;;;;14.88;100.00;101048.25;4810817;29;20144;-65
2023/08/28 05:51:51;;;;;;;8.70;4.82;;;;;;;14.96;100.00;101052.28;4825485;29;20427;-65
2023/08/28 05:54:19;;;;;;;10.52;4.97;;;;;;;15.03;100.00;101053.59;4809329;29;20054;-65
2023/08/28 05:56:46;;;;;;;8.57;4.22;;;;;;;15.03;100.00;101052.75;4825388;29;20065;-64
2023/08/28 05:59:14;;;;;;;9.05;4.50;;;;;;;15.03;100.00;101056.31;4794775;29;20110;-65
2023/08/28 06:01:42;;;;;;;9.90;4.90;;;;;;;15.09;100.00;101059.81;4810270;29;20054;-64
2023/08/28 06:04:10;;;;;;;8.55;4.57;;;;;;;15.17;100.00;101061.91;4793776;29;20169;-65
2023/08/28 06:06:38;;;;;;;9.70;4.50;;;;;;;15.18;100.00;101055.31;4809812;29;20054;-64
2023/08/28 06:09:07;;;;;;;10.90;5.20;;;;;;;15.13;100.00;101045.22;4809912;29;20134;-65
2023/08/28 06:11:35;;;;;;;8.32;4.43;;;;;;;15.11;100.00;101052.13;4825834;29;20061;-65
2023/08/28 06:14:05;;;;;;;9.13;5.10;;;;;;;15.09;100.00;101048.84;4809093;29;20106;-65
2023/08/28 06:16:33;;;;;;;10.65;5.25;;;;;;;15.15;100.00;101044.91;4808945;29;20404;-64
2023/08/28 06:19:01;;;;;;;9.40;5.28;;;;;;;15.18;100.00;101051.75;4825876;29;20054;-63
2023/08/28 06:21:29;;;;;;;10.18;4.47;;;;;;;15.23;100.00;101048.97;4824800;29;20457;-64
2023/08/28 06:23:57;;;;;;;7.22;4.38;;;;;;;15.32;100.00;101056.25;4831152;29;20345;-63
2023/08/28 06:26:26;;;;;;;6.97;4.43;;;;;;;15.27;100.00;101056.31;4826732;29;20050;-64
2023/08/28 06:28:54;;;;;;;8.88;4.90;;;;;;;15.30;100.00;101052.97;4824965;29;20058;-64
2023/08/28 06:31:22;;;;;;;8.13;4.53;;;;;;;15.29;100.00;101054.06;4838977;29;20058;-63
2023/08/28 06:33:50;;;;;;;7.93;4.57;;;;;;;15.28;100.00;101057.13;4823756;29;20046;-63
2023/08/28 06:36:17;;;;;;;8.20;5.25;;;;;;;15.28;100.00;101054.38;4499414;29;10000527;-65
2023/08/28 06:38:46;;;;;;;8.25;5.03;;;;;;;15.26;100.00;101054.66;4840309;29;20057;-66
2023/08/28 06:41:14;;;;;;;10.35;5.18;;;;;;;15.28;100.00;101057.13;4840229;29;20602;-63
2023/08/28 06:43:42;;;;;;;6.60;4.38;;;;;;;15.30;100.00;101054.91;4828415;29;20162;-64
2023/08/28 06:46:09;;;;;;;8.63;4.72;;;;;;;15.32;100.00;101056.25;4805340;29;20054;-64
2023/08/28 06:48:37;;;;;;;8.32;4.28;;;;;;;15.33;100.00;101054.31;4821233;29;20057;-63
2023/08/28 06:51:05;;;;;;;10.15;5.43;;;;;;;15.34;100.00;101058.69;4821211;29;20058;-64
2023/08/28 06:53:33;;;;;;;14.27;6.45;;;;;;;15.35;100.00;101060.31;4816678;29;20042;-63
2023/08/28 06:56:01;;;;;;;9.57;5.60;;;;;;;15.33;100.00;101068.84;4820898;29;20070;-64
2023/08/28 06:58:28;;;;;;;11.23;5.85;;;;;;;15.32;100.00;101064.47;4805964;29;20065;-65
2023/08/28 07:00:57;;;;;;;11.18;6.20;;;;;;;15.30;100.00;101072.19;4806061;29;20054;-64
2023/08/28 07:03:25;;;;;;;12.98;6.80;;;;;;;15.29;100.00;101069.72;4822367;29;20054;-65
2023/08/28 07:05:52;;;;;;;13.90;6.53;;;;;;;15.30;100.00;101074.13;4821192;29;20046;-65
2023/08/28 07:08:24;;;;;;;10.10;6.55;;;;;;;15.32;100.00;101086.44;4809317;29;20060;-64
2023/08/28 07:10:51;;;;;;;11.65;6.28;;;;;;;15.32;100.00;101086.44;4809865;29;20480;-66
2023/08/28 07:13:19;;;;;;;12.07;6.68;;;;;;;15.34;100.00;101088.88;4825785;29;20043;-64
2023/08/28 07:15:47;;;;;;;11.75;5.90;;;;;;;15.37;100.00;101092.97;4809291;29;20057;-64
2023/08/28 07:18:16;;;;;;;10.20;5.88;;;;;;;15.38;100.00;101091.88;4825946;29;20522;-65
2023/08/28 07:20:44;;;;;;;13.18;6.85;;;;;;;15.42;100.00;101098.41;4826320;29;20050;-64
2023/08/28 07:23:12;;;;;;;9.23;5.22;;;;;;;15.47;100.00;101087.38;4832125;29;20054;-65
2023/08/28 07:25:40;;;;;;;10.55;6.13;;;;;;;15.46;100.00;101086.53;4831725;29;20054;-63
2023/08/28 07:28:08;;;;;;;10.07;5.28;;;;;;;15.46;100.00;101096.69;4824764;29;20084;-62
2023/08/28 07:30:36;;;;;;;13.93;5.68;;;;;;;15.47;100.00;101090.91;4856060;29;20137;-63
2023/08/28 07:33:05;;;;;;;25.27;8.13;;;;;;;15.54;100.00;101087.81;4846779;29;20125;-64
2023/08/28 07:35:36;;;;;;;21.58;7.15;;;;;;;15.60;100.00;101091.31;4833866;29;20050;-63
2023/08/28 07:38:05;;;;;;;20.77;6.82;;;;;;;15.62;100.00;101081.66;4845736;29;20057;-57
2023/08/28 07:40:33;;;;;;;11.10;5.55;;;;;;;15.66;100.00;101087.38;4828820;29;20058;-59
2023/08/28 07:43:01;;;;;;;28.23;9.18;;;;;;;15.70;100.00;101085.69;4808824;29;20535;-63
2023/08/28 07:45:30;;;;;;;10.13;5.63;;;;;;;15.68;100.00;101082.38;4816240;29;20518;-64
2023/08/28 07:47:59;;;;;;;15.77;6.20;;;;;;;15.69;100.00;101087.59;4830027;29;20062;-64
2023/08/28 07:50:29;;;;;;;9.68;4.97;;;;;;;15.71;100.00;101085.41;4826523;29;20050;-64
2023/08/28 07:53:00;;;;;;;14.10;6.00;;;;;;;15.74;100.00;101087.56;4814033;29;20495;-62
2023/08/28 07:55:29;;;;;;;9.43;5.40;;;;;;;15.73;100.00;101085.94;4831819;29;20087;-66
2023/08/28 07:57:57;;;;;;;9.82;5.40;;;;;;;15.72;100.00;101089.78;4830735;29;20061;-65
2023/08/28 08:00:25;;;;;;;8.20;5.20;;;;;;;15.74;100.00;101092.25;4830903;29;20063;-64
2023/08/28 08:02:53;;;;;;;8.18;5.32;;;;;;;15.76;100.00;101095.50;4830997;29;20058;-64
2023/08/28 08:05:21;;;;;;;9.07;5.80;;;;;;;15.79;100.00;101091.34;4814962;29;20065;-64
2023/08/28 08:07:49;;;;;;;10.30;5.30;;;;;;;15.81;100.00;101095.44;4831003;29;20062;-64
2023/08/28 08:10:16;;;;;;;10.50;5.82;;;;;;;15.82;100.00;101088.00;4830359;29;20050;-64
2023/08/28 08:12:45;;;;;;;10.57;5.25;;;;;;;15.85;100.00;101090.16;4799459;29;20208;-65
2023/08/28 08:15:12;;;;;;;10.38;4.50;;;;;;;15.88;100.00;101092.31;4814498;29;20062;-62
2023/08/28 08:17:40;;;;;;;6.90;4.07;;;;;;;15.89;100.00;101091.19;4829910;29;20523;-64
2023/08/28 08:20:12;;;;;;;10.40;4.50;;;;;;;15.93;100.00;101089.50;4822522;29;20046;-65
2023/08/28 08:22:42;;;;;;;5.32;3.30;;;;;;;15.96;100.00;101078.72;4824421;29;20051;-64
2023/08/28 08:25:10;;;;;;;7.57;4.28;;;;;;;16.00;100.00;101091.88;4829891;29;20062;-64
2023/08/28 08:27:39;;;;;;;7.97;4.18;;;;;;;16.05;100.00;101084.38;4813903;29;20054;-64
2023/08/28 08:30:08;;;;;;;9.40;4.65;;;;;;;16.09;100.00;101087.31;4813870;29;20253;-65
2023/08/28 08:32:36;;;;;;;7.18;3.33;;;;;;;16.12;100.00;101084.81;4813811;29;20068;-64
2023/08/28 08:35:05;;;;;;;3.70;1.85;;;;;;;16.17;100.00;101086.66;4830149;29;20050;-64
2023/08/28 08:37:33;;;;;;;1.98;1.60;;;;;;;16.24;100.00;101083.53;4830164;29;20061;-65
2023/08/28 08:40:02;;;;;;;3.78;2.40;;;;;;;16.32;100.00;101091.09;4830699;29;20060;-64
2023/08/28 08:42:30;;;;;;;4.63;2.08;;;;;;;16.34;100.00;101088.84;4830601;29;20517;-65
2023/08/28 08:44:58;;;;;;;4.47;2.17;;;;;;;16.40;100.00;101098.66;4812067;29;20062;-64
2023/08/28 08:47:25;;;;;;;5.00;2.70;;;;;;;16.44;100.00;101088.69;4810936;29;20075;-63
2023/08/28 08:49:56;;;;;;;11.32;3.40;;;;;;;16.49;100.00;101088.59;4827668;29;20061;-64
2023/08/28 08:52:25;;;;;;;11.35;3.97;;;;;;;16.55;100.00;101092.09;4827230;29;20073;-64
2023/08/28 08:54:56;;;;;;;5.22;2.75;;;;;;;16.62;100.00;101095.28;4827452;29;20488;-65
2023/08/28 08:57:37;;;;;;;4.85;2.80;;;;;;;16.67;100.00;101103.44;4827216;29;20058;-65
2023/08/28 09:00:11;;;;;;;3.58;2.50;;;;;;;16.71;100.00;101093.44;4827306;29;20074;-65
2023/08/28 09:02:39;;;;;;;7.78;3.03;;;;;;;16.75;100.00;101099.16;4797242;29;20054;-65
2023/08/28 09:05:09;;;;;;;5.78;2.40;;;;;;;16.75;100.00;101093.66;4795992;29;20053;-65
2023/08/28 09:07:37;;;;;;;4.75;2.30;;;;;;;16.77;100.00;101094.97;4795630;29;20057;-64
2023/08/28 09:10:05;;;;;;;5.13;2.38;;;;;;;16.83;100.00;101101.22;4826982;29;20051;-65
2023/08/28 09:12:33;;;;;;;4.45;2.30;;;;;;;16.86;100.00;101094.31;4811438;29;20042;-65
2023/08/28 09:15:02;;;;;;;5.90;2.40;;;;;;;16.86;100.00;101086.88;4811122;29;20492;-65
2023/08/28 09:17:30;;;;;;;4.85;2.10;;;;;;;16.88;100.00;101083.81;4827025;29;20057;-64
2023/08/28 09:20:19;;;;;;;4.78;2.67;;;;;;;16.88;100.00;101092.06;4810952;29;20054;-64
2023/08/28 09:22:48;;;;;;;4.03;2.30;;;;;;;16.86;100.00;101084.13;4807065;29;20051;-64
2023/08/28 09:25:21;;;;;;;4.60;2.25;;;;;;;16.85;100.00;101087.19;4808626;29;20055;-65
2023/08/28 09:27:54;;;;;;;4.78;2.40;;;;;;;16.83;100.00;101079.22;4808683;29;20050;-65
2023/08/28 09:30:30;;;;;;;8.57;2.40;;;;;;;16.80;100.00;101091.66;4824252;29;20065;-65
2023/08/28 09:32:59;;;;;;;5.28;2.42;;;;;;;16.78;100.00;101088.38;4826301;29;20058;-65
2023/08/28 09:35:28;;;;;;;5.40;2.53;;;;;;;16.77;100.00;101083.16;4826682;29;20047;-64
2023/08/28 09:38:01;;;;;;;3.50;2.20;;;;;;;16.79;100.00;101086.47;4810891;29;20050;-65
2023/08/28 09:40:32;;;;;;;6.35;2.28;;;;;;;16.79;100.00;101100.22;4809885;29;20403;-63
2023/08/28 09:43:00;;;;;;;6.53;2.78;;;;;;;16.78;100.00;101091.13;4810351;29;20054;-64
2023/08/28 09:45:32;;;;;;;4.80;3.00;;;;;;;16.78;100.00;101093.03;4824431;29;20393;-64
2023/08/28 09:48:04;;;;;;;6.57;2.97;;;;;;;16.77;100.00;101096.94;4809429;29;20061;-65
2023/08/28 09:50:34;;;;;;;7.45;3.50;;;;;;;16.75;100.00;101094.47;4803495;29;20042;-64
2023/08/28 09:53:13;;;;;;;3.95;2.78;;;;;;;16.74;100.00;101108.50;4795669;29;20051;-65
2023/08/28 09:55:49;;;;;;;5.72;2.70;;;;;;;16.72;100.00;101105.28;4806205;29;20420;-63
2023/08/28 09:58:17;;;;;;;3.67;2.50;;;;;;;16.69;100.00;101100.34;4807140;29;20080;-66
2023/08/28 10:00:45;;;;;;;7.22;3.25;;;;;;;16.67;100.00;101103.44;4807857;29;20307;-66
2023/08/28 10:03:14;;;;;;;3.95;2.50;;;;;;;16.68;100.00;101109.75;4808472;29;20066;-65
2023/08/28 10:05:45;;;;;;;4.97;2.75;;;;;;;16.69;100.00;101114.13;4804535;29;20047;-65
2023/08/28 10:08:14;;;;;;;7.82;2.53;;;;;;;16.68;100.00;101105.03;4808188;29;20484;-65
2023/08/28 10:10:47;;;;;;;3.72;2.20;;;;;;;16.68;100.00;101109.75;4807693;29;20050;-65
2023/08/28 10:13:21;;;;;;;4.32;2.53;;;;;;;16.71;100.00;101120.13;4808002;29;20051;-65
2023/08/28 10:15:58;;;;;;;6.93;2.97;;;;;;;16.73;100.00;101117.91;4790491;29;20054;-65
2023/08/28 10:18:39;;;;;;;4.82;2.85;;;;;;;16.75;100.00;101116.47;4806221;29;20059;-65
2023/08/28 10:21:08;;;;;;;4.82;2.90;;;;;;;16.77;100.00;101113.44;4788036;29;20081;-64
2023/08/28 10:23:36;;;;;;;9.52;3.60;;;;;;;16.74;100.00;101108.50;4788564;30;20142;-66
2023/08/28 10:26:03;;;;;;;9.45;4.20;;;;;;;16.72;100.00;101113.53;4792298;29;20062;-65
2023/08/28 10:28:31;;;;;;;13.77;3.83;;;;;;;16.72;100.00;101106.09;4807124;29;20043;-66
2023/08/28 10:30:59;;;;;;;6.78;3.95;;;;;;;16.72;100.00;101100.59;4807333;29;20058;-65
2023/08/28 10:33:30;;;;;;;6.35;3.33;;;;;;;16.75;100.00;101105.47;4475332;29;10000197;-65
2023/08/28 10:36:00;;;;;;;7.40;3.97;;;;;;;16.75;100.00;101105.47;4835970;29;20424;-64
2023/08/28 10:38:28;;;;;;;7.35;3.90;;;;;;;16.77;100.00;101107.94;4800919;29;20066;-65
2023/08/28 10:40:58;;;;;;;8.10;3.40;;;;;;;16.78;100.00;101109.56;4802392;29;20088;-65
2023/08/28 10:43:27;;;;;;;5.60;3.45;;;;;;;16.78;100.00;101115.06;4788275;29;20431;-64
2023/08/28 10:45:57;;;;;;;6.35;3.58;;;;;;;16.79;100.00;101117.56;4802021;29;20510;-65
2023/08/28 10:48:25;;;;;;;6.55;3.15;;;;;;;16.82;100.00;101116.13;4802956;29;20500;-67
2023/08/28 10:50:57;;;;;;;5.53;3.17;;;;;;;16.83;100.00;101106.75;4809594;29;20411;-66
2023/08/28 10:53:26;;;;;;;8.73;3.83;;;;;;;16.84;100.00;101102.88;4801769;29;20062;-65
2023/08/28 10:55:56;;;;;;;5.65;3.45;;;;;;;16.86;100.00;101102.56;4807277;29;20062;-64
2023/08/28 10:58:25;;;;;;;6.10;3.60;;;;;;;16.86;100.00;101099.81;4802533;29;20055;-65
2023/08/28 11:01:16;;;;;;;5.22;3.40;;;;;;;16.88;100.00;101100.31;4780198;29;20815;-65
2023/08/28 11:03:57;;;;;;;8.95;3.50;;;;;;;16.90;100.00;101096.16;4806688;29;20145;-65
2023/08/28 11:06:41;;;;;;;4.78;2.88;;;;;;;16.93;100.00;101095.56;4775987;29;20485;-64
2023/08/28 11:09:27;;;;;;;6.82;3.25;;;;;;;16.94;100.00;101099.94;4790203;29;20070;-64
2023/08/28 11:12:01;;;;;;;5.88;3.35;;;;;;;16.96;100.00;101099.63;4807160;29;20422;-64
2023/08/28 11:14:33;;;;;;;5.38;3.30;;;;;;;17.07;100.00;101091.97;4807490;29;20389;-65
2023/08/28 11:17:20;;;;;;;6.50;3.75;;;;;;;17.20;100.00;101085.69;4816503;29;20505;-64
2023/08/28 11:19:56;;;;;;;5.43;3.33;;;;;;;17.28;100.00;101084.13;4795231;29;20047;-65
2023/08/28 11:22:37;;;;;;;3.28;2.83;;;;;;;17.34;100.00;101083.75;4806265;29;20059;-64
2023/08/28 11:25:11;;;;;;;5.88;2.20;;;;;;;17.52;100.00;101078.41;4819837;29;20055;-65
2023/08/28 11:27:48;;;;;;;6.25;3.10;;;;;;;17.63;100.00;101068.78;4820307;29;20049;-64